Time;durP1;ratioP1;P1;durP2;ratioP2;P2;SDS_P1;SDS_P2;PMS_P1;PMS_P2;Temp;Humidity;BMP_temperature;BMP_pressure;BME280_temperature;BME280_humidity;BME280_pressure;Samples;Min_cycle;Max_cycle;Signal;HPM_P1;HPM_P2
2022/05/18 00:00:14;;;;;;;11.32;5.55;;;18.50;99.90;;;;;;5052145;28;20056;-83
2022/05/18 00:02:41;;;;;;;11.95;6.45;;;18.50;99.90;;;;;;5018313;28;20033;-83
2022/05/18 00:05:07;;;;;;;11.32;6.13;;;18.50;99.90;;;;;;5033860;28;20041;-83
2022/05/18 00:07:33;;;;;;;11.88;6.20;;;18.50;99.90;;;;;;5016981;28;20033;-82
2022/05/18 00:09:58;;;;;;;9.88;5.95;;;18.40;99.90;;;;;;5033997;28;20040;-83
2022/05/18 00:12:25;;;;;;;12.40;5.70;;;18.40;99.90;;;;;;5033527;28;20045;-83
2022/05/18 00:14:51;;;;;;;11.25;6.45;;;18.40;99.90;;;;;;5034148;28;20566;-83
2022/05/18 00:17:17;;;;;;;11.27;6.10;;;18.40;99.90;;;;;;5033185;28;20072;-83
2022/05/18 00:19:42;;;;;;;12.00;6.40;;;18.40;99.90;;;;;;5034444;28;20482;-83
2022/05/18 00:22:08;;;;;;;11.27;5.90;;;18.30;99.90;;;;;;5017837;28;20037;-83
2022/05/18 00:24:33;;;;;;;11.65;6.38;;;18.30;99.90;;;;;;5016938;28;20052;-82
2022/05/18 00:27:03;;;;;;;10.70;5.97;;;18.30;99.90;;;;;;5034269;28;20131;-83
2022/05/18 00:29:32;;;;;;;11.50;5.97;;;18.20;99.90;;;;;;5033911;28;20072;-83
2022/05/18 00:31:58;;;;;;;10.80;5.82;;;18.20;99.90;;;;;;5034847;28;20055;-83
2022/05/18 00:34:24;;;;;;;9.95;5.53;;;18.20;99.90;;;;;;5034016;28;20112;-83
2022/05/18 00:36:49;;;;;;;11.38;5.60;;;18.20;99.90;;;;;;5016896;28;20049;-83
2022/05/18 00:39:15;;;;;;;11.20;5.90;;;18.20;99.90;;;;;;5017655;28;20048;-83
2022/05/18 00:41:40;;;;;;;11.10;5.85;;;18.10;99.90;;;;;;5033969;28;20047;-83
2022/05/18 00:44:07;;;;;;;12.50;6.05;;;18.10;99.90;;;;;;5033372;28;20525;-83
2022/05/18 00:46:32;;;;;;;11.98;6.13;;;18.10;99.90;;;;;;5016665;28;20036;-83
2022/05/18 00:49:00;;;;;;;11.45;5.90;;;18.10;99.90;;;;;;5033466;28;20383;-83
2022/05/18 00:51:55;;;;;;;10.60;6.03;;;18.00;99.90;;;;;;5034670;28;20037;-83
2022/05/18 00:54:25;;;;;;;11.48;5.70;;;18.00;99.90;;;;;;5031520;28;20081;-83
2022/05/18 00:57:00;;;;;;;10.82;6.05;;;18.00;99.90;;;;;;5033544;28;20055;-83
2022/05/18 00:59:31;;;;;;;10.40;5.95;;;18.00;99.90;;;;;;5032847;28;20120;-83
2022/05/18 01:01:59;;;;;;;11.48;6.07;;;17.90;99.90;;;;;;5017422;28;20409;-83
2022/05/18 01:04:26;;;;;;;9.65;5.50;;;17.90;99.90;;;;;;5032216;28;20111;-83
2022/05/18 01:07:27;;;;;;;10.40;5.80;;;17.90;99.90;;;;;;5033379;28;20052;-83
2022/05/18 01:09:53;;;;;;;9.52;6.13;;;17.90;99.90;;;;;;4957627;28;20054;-83
2022/05/18 01:12:20;;;;;;;11.10;5.72;;;17.80;99.90;;;;;;4973338;28;20558;-83
2022/05/18 01:14:52;;;;;;;10.48;5.75;;;17.80;99.90;;;;;;4973455;28;20038;-83
2022/05/18 01:17:22;;;;;;;10.50;5.82;;;17.80;99.90;;;;;;4972251;28;20057;-83
2022/05/18 01:19:50;;;;;;;11.23;5.90;;;17.80;99.90;;;;;;4972312;28;20090;-83
2022/05/18 01:22:44;;;;;;;9.80;5.43;;;17.70;99.90;;;;;;4957517;28;20566;-83
2022/05/18 01:25:34;;;;;;;9.50;5.55;;;17.70;99.90;;;;;;4971974;28;20048;-83
2022/05/18 01:28:01;;;;;;;10.50;5.45;;;17.70;99.90;;;;;;4972573;28;20069;-83
2022/05/18 01:30:28;;;;;;;11.88;5.70;;;17.60;99.90;;;;;;4973269;28;20039;-83
2022/05/18 01:32:56;;;;;;;12.80;5.43;;;17.60;99.90;;;;;;4972944;28;20389;-83
2022/05/18 01:35:26;;;;;;;11.95;5.93;;;17.60;99.90;;;;;;4971069;28;20044;-83
2022/05/18 01:37:57;;;;;;;10.38;5.43;;;17.60;99.90;;;;;;4972261;28;20797;-83
2022/05/18 01:40:43;;;;;;;10.52;6.05;;;17.60;99.90;;;;;;4971728;28;20042;-83
2022/05/18 01:43:24;;;;;;;9.45;5.60;;;17.60;99.90;;;;;;4972493;28;20044;-83
2022/05/18 01:45:57;;;;;;;11.80;6.28;;;17.60;99.90;;;;;;4994845;28;20114;-83
2022/05/18 01:48:35;;;;;;;11.55;6.38;;;17.60;99.90;;;;;;5031404;28;20512;-83
2022/05/18 01:51:03;;;;;;;10.55;6.00;;;17.50;99.90;;;;;;5032872;28;20051;-83
2022/05/18 01:53:30;;;;;;;10.68;5.55;;;17.50;99.90;;;;;;5031219;28;20582;-83
2022/05/18 01:55:56;;;;;;;9.63;5.90;;;17.40;99.90;;;;;;5031670;28;20756;-83
2022/05/18 01:58:22;;;;;;;10.98;5.80;;;17.40;99.90;;;;;;5014992;28;20163;-83
2022/05/18 02:00:49;;;;;;;10.00;5.78;;;17.40;99.90;;;;;;5031581;28;20041;-83
2022/05/18 02:03:15;;;;;;;10.80;6.53;;;17.40;99.90;;;;;;5015658;28;20044;-83
2022/05/18 02:05:42;;;;;;;10.30;5.90;;;17.30;99.90;;;;;;5014698;28;20466;-83
2022/05/18 02:08:08;;;;;;;11.25;5.70;;;17.30;99.90;;;;;;5032040;28;20037;-83
2022/05/18 02:10:34;;;;;;;11.40;6.43;;;17.30;99.90;;;;;;5015646;28;20048;-83
2022/05/18 02:13:00;;;;;;;10.68;6.47;;;17.30;99.90;;;;;;5031801;28;20036;-83
2022/05/18 02:15:27;;;;;;;11.55;6.18;;;17.30;99.90;;;;;;5032444;28;20518;-83
2022/05/18 02:17:53;;;;;;;11.57;6.65;;;17.20;99.90;;;;;;5014949;28;20033;-83
2022/05/18 02:20:19;;;;;;;10.43;6.32;;;17.20;99.90;;;;;;5032383;28;20042;-83
2022/05/18 02:22:45;;;;;;;10.68;6.60;;;17.20;99.90;;;;;;5033194;28;20102;-83
2022/05/18 02:25:11;;;;;;;10.93;6.72;;;17.20;99.90;;;;;;5031802;28;20451;-83
2022/05/18 02:27:36;;;;;;;10.68;7.20;;;17.20;99.90;;;;;;5032236;28;20425;-83
2022/05/18 02:30:04;;;;;;;12.23;6.28;;;17.20;99.90;;;;;;5032719;28;20033;-83
2022/05/18 02:32:30;;;;;;;12.00;7.18;;;17.10;99.90;;;;;;5032021;28;20037;-82
2022/05/18 02:34:55;;;;;;;10.20;6.18;;;17.10;99.90;;;;;;5032259;28;20048;-83
2022/05/18 02:37:21;;;;;;;10.38;6.65;;;17.10;99.90;;;;;;5033828;28;20041;-83
2022/05/18 02:39:47;;;;;;;10.45;6.93;;;17.10;99.90;;;;;;5020064;28;20769;-83
2022/05/18 02:42:12;;;;;;;9.70;5.55;;;17.00;99.90;;;;;;5019993;28;20697;-83
2022/05/18 02:44:38;;;;;;;10.20;6.55;;;17.00;99.90;;;;;;5019575;28;20086;-83
2022/05/18 02:47:04;;;;;;;10.73;6.97;;;17.00;99.90;;;;;;5036002;28;20127;-83
2022/05/18 02:49:30;;;;;;;12.73;7.50;;;17.00;99.90;;;;;;5019149;28;20033;-83
2022/05/18 02:51:55;;;;;;;10.23;6.57;;;16.90;99.90;;;;;;5019984;28;20124;-83
2022/05/18 02:57:07;;;;;;;9.85;6.63;;;16.90;99.90;;;;;;5035686;28;20488;-83
2022/05/18 02:59:34;;;;;;;10.88;5.95;;;16.90;99.90;;;;;;5036010;28;20106;-83
2022/05/18 03:02:00;;;;;;;12.52;8.02;;;16.80;99.90;;;;;;5018752;28;20512;-82
2022/05/18 03:04:26;;;;;;;10.27;6.82;;;16.80;99.90;;;;;;5036147;28;20128;-83
2022/05/18 03:06:52;;;;;;;11.00;7.13;;;16.80;99.90;;;;;;5035408;28;20136;-83
2022/05/18 03:09:18;;;;;;;10.88;6.35;;;16.70;99.90;;;;;;5035822;28;20037;-83
2022/05/18 03:11:44;;;;;;;12.50;7.47;;;16.70;99.90;;;;;;5036577;28;20044;-83
2022/05/18 03:14:10;;;;;;;12.50;7.75;;;16.70;99.90;;;;;;5018565;28;20502;-83
2022/05/18 03:16:37;;;;;;;11.35;7.80;;;16.70;99.90;;;;;;5035208;28;20052;-83
2022/05/18 03:19:03;;;;;;;10.82;7.78;;;16.70;99.90;;;;;;5035377;28;20044;-82
2022/05/18 03:24:13;;;;;;;11.52;7.72;;;16.60;99.90;;;;;;5035916;28;20068;-83
2022/05/18 03:26:39;;;;;;;11.38;7.47;;;16.60;99.90;;;;;;5034875;28;20061;-83
2022/05/18 03:29:04;;;;;;;11.57;7.95;;;16.60;99.90;;;;;;5034833;28;20036;-82
2022/05/18 03:31:30;;;;;;;11.75;7.82;;;16.60;99.90;;;;;;5036295;28;20059;-82
2022/05/18 03:33:56;;;;;;;11.63;8.00;;;16.50;99.90;;;;;;5034681;28;20470;-82
2022/05/18 03:36:22;;;;;;;11.20;7.97;;;16.50;99.90;;;;;;5034883;28;20049;-83
2022/05/18 03:38:49;;;;;;;13.73;8.13;;;16.50;99.90;;;;;;5033950;28;20525;-83
2022/05/18 03:41:16;;;;;;;11.07;8.60;;;16.50;99.90;;;;;;5035433;28;20562;-83
2022/05/18 03:43:42;;;;;;;12.35;8.10;;;16.50;99.90;;;;;;5018427;28;20087;-83
2022/05/18 03:46:08;;;;;;;14.00;8.30;;;16.40;99.90;;;;;;5034612;28;20041;-83
2022/05/18 03:48:34;;;;;;;11.80;8.45;;;16.40;99.90;;;;;;5033565;28;20486;-83
2022/05/18 03:51:01;;;;;;;12.30;8.25;;;16.40;99.90;;;;;;5035231;28;20051;-83
2022/05/18 03:53:28;;;;;;;13.20;8.00;;;16.40;99.90;;;;;;5018778;28;20521;-83
2022/05/18 03:55:54;;;;;;;12.18;8.45;;;16.40;99.90;;;;;;5033974;28;20553;-83
2022/05/18 03:58:20;;;;;;;14.20;8.95;;;16.30;99.90;;;;;;5034265;28;20128;-82
2022/05/18 04:00:48;;;;;;;13.25;9.07;;;16.30;99.90;;;;;;5018384;28;20033;-83
2022/05/18 04:03:15;;;;;;;14.38;8.63;;;16.30;99.90;;;;;;5018140;28;20102;-83
2022/05/18 04:05:41;;;;;;;10.27;7.90;;;16.30;99.90;;;;;;5034744;28;20041;-83
2022/05/18 04:08:08;;;;;;;11.65;8.38;;;16.30;99.90;;;;;;5017430;28;20079;-82
2022/05/18 04:10:35;;;;;;;13.07;9.13;;;16.30;99.90;;;;;;5018861;28;20037;-82
2022/05/18 04:13:01;;;;;;;12.63;8.43;;;16.30;99.90;;;;;;5034734;28;20033;-83
2022/05/18 04:15:27;;;;;;;12.48;7.53;;;16.30;99.90;;;;;;5029594;28;20103;-80
2022/05/18 04:17:53;;;;;;;12.32;8.73;;;16.20;99.90;;;;;;5032290;28;20041;-82
2022/05/18 04:20:20;;;;;;;11.88;7.95;;;16.30;99.90;;;;;;5014114;28;20033;-82
2022/05/18 04:22:47;;;;;;;12.98;9.10;;;16.20;99.90;;;;;;5019253;28;20041;-82
2022/05/18 04:25:16;;;;;;;13.43;9.05;;;16.30;99.90;;;;;;5034953;28;20037;-82
2022/05/18 04:27:42;;;;;;;13.30;9.27;;;16.30;99.90;;;;;;5034431;28;20064;-83
2022/05/18 04:30:08;;;;;;;12.55;9.32;;;16.30;99.90;;;;;;5020505;28;20032;-82
2022/05/18 04:32:37;;;;;;;13.43;9.38;;;16.30;99.90;;;;;;5034355;28;20033;-82
2022/05/18 04:35:03;;;;;;;13.75;9.90;;;16.30;99.90;;;;;;5034128;28;20029;-82
2022/05/18 04:37:29;;;;;;;13.88;9.52;;;16.30;99.90;;;;;;5017206;28;20123;-82
2022/05/18 04:39:54;;;;;;;12.02;9.75;;;16.30;99.90;;;;;;5033216;28;20108;-82
2022/05/18 04:42:22;;;;;;;11.85;7.13;;;16.30;99.90;;;;;;5033800;28;20036;-82
2022/05/18 04:44:50;;;;;;;15.40;11.23;;;16.30;99.90;;;;;;5033361;28;20060;-82
2022/05/18 04:47:16;;;;;;;13.80;10.43;;;16.30;99.90;;;;;;5033743;28;20088;-82
2022/05/18 04:49:42;;;;;;;13.63;10.23;;;16.30;99.90;;;;;;5033188;28;20047;-82
2022/05/18 04:52:07;;;;;;;13.98;10.13;;;16.40;99.90;;;;;;5034378;28;20123;-83
2022/05/18 04:54:34;;;;;;;13.82;10.15;;;16.40;99.90;;;;;;5032904;28;20039;-82
2022/05/18 04:57:00;;;;;;;12.77;9.60;;;16.40;99.90;;;;;;5016592;28;20041;-83
2022/05/18 04:59:26;;;;;;;13.80;9.80;;;16.40;99.90;;;;;;5032950;28;20040;-82
2022/05/18 05:01:51;;;;;;;12.27;10.45;;;16.50;99.90;;;;;;5033479;28;20037;-83
2022/05/18 05:04:17;;;;;;;12.20;9.88;;;16.50;99.90;;;;;;5015004;28;20045;-83
2022/05/18 05:06:45;;;;;;;14.05;8.52;;;16.60;99.90;;;;;;5032148;28;20039;-83
2022/05/18 05:09:11;;;;;;;13.48;9.95;;;16.60;99.90;;;;;;5032167;28;20047;-83
2022/05/18 05:11:37;;;;;;;13.60;10.10;;;16.60;99.90;;;;;;5032868;28;20037;-83
2022/05/18 05:14:03;;;;;;;14.88;10.38;;;16.60;99.90;;;;;;5032817;28;20072;-83
2022/05/18 05:16:29;;;;;;;13.65;10.35;;;16.70;99.90;;;;;;5031843;28;20450;-83
2022/05/18 05:18:56;;;;;;;16.35;10.77;;;16.80;99.90;;;;;;5031042;28;20083;-83
2022/05/18 05:21:21;;;;;;;15.00;11.07;;;16.90;99.90;;;;;;5015852;28;20052;-83
2022/05/18 05:23:47;;;;;;;14.63;10.68;;;16.90;99.90;;;;;;5031777;28;20033;-83
2022/05/18 05:26:13;;;;;;;16.67;10.57;;;17.00;99.90;;;;;;5031725;28;20694;-83
2022/05/18 05:28:40;;;;;;;14.55;10.50;;;17.00;99.90;;;;;;5048506;28;20029;-82
2022/05/18 05:31:08;;;;;;;14.20;10.25;;;17.10;99.90;;;;;;5032928;28;20033;-83
2022/05/18 05:33:34;;;;;;;13.13;10.32;;;17.20;99.90;;;;;;5016656;28;20128;-83
2022/05/18 05:36:00;;;;;;;15.25;10.88;;;17.20;99.90;;;;;;5015128;28;20498;-82
2022/05/18 05:38:26;;;;;;;15.88;10.75;;;17.30;99.90;;;;;;5031725;28;20119;-83
2022/05/18 05:40:51;;;;;;;13.27;11.02;;;17.40;99.90;;;;;;5016228;28;20128;-83
2022/05/18 05:43:17;;;;;;;14.57;10.98;;;17.50;99.90;;;;;;5032507;28;20041;-83
2022/05/18 05:45:54;;;;;;;13.55;11.35;;;17.50;99.90;;;;;;5032456;28;20553;-83
2022/05/18 05:48:20;;;;;;;14.02;10.38;;;17.60;99.90;;;;;;5014540;28;20637;-83
2022/05/18 05:50:45;;;;;;;13.85;10.98;;;17.70;99.90;;;;;;5032763;28;20090;-83
2022/05/18 05:53:11;;;;;;;13.65;11.10;;;17.70;99.90;;;;;;5015235;28;20498;-83
2022/05/18 05:55:36;;;;;;;14.70;11.23;;;17.80;99.90;;;;;;5030158;28;20041;-82
2022/05/18 05:58:02;;;;;;;13.88;11.25;;;17.90;99.90;;;;;;5031824;28;20044;-83
2022/05/18 06:00:27;;;;;;;13.07;10.70;;;18.00;99.90;;;;;;5032679;28;20128;-83
2022/05/18 06:02:53;;;;;;;14.57;10.50;;;18.10;99.90;;;;;;5016337;28;20132;-83
2022/05/18 06:05:19;;;;;;;13.73;10.90;;;18.10;99.90;;;;;;5031459;28;20116;-83
2022/05/18 06:07:45;;;;;;;14.73;10.77;;;18.20;99.90;;;;;;5015562;28;20155;-83
2022/05/18 06:10:11;;;;;;;15.13;11.10;;;18.30;99.90;;;;;;5032875;28;20160;-83
2022/05/18 06:12:38;;;;;;;13.30;10.70;;;18.40;99.90;;;;;;5031259;28;20035;-83
2022/05/18 06:15:05;;;;;;;13.10;11.10;;;18.50;99.90;;;;;;5015914;28;20486;-83
2022/05/18 06:17:31;;;;;;;14.50;10.60;;;18.60;99.90;;;;;;5014282;28;20082;-83
2022/05/18 06:19:57;;;;;;;14.15;10.23;;;18.70;99.90;;;;;;5032182;28;20029;-84
2022/05/18 06:22:22;;;;;;;12.60;10.25;;;18.80;99.90;;;;;;5015866;28;20041;-84
2022/05/18 06:24:51;;;;;;;13.45;10.63;;;18.80;99.90;;;;;;5031415;28;20083;-83
2022/05/18 06:27:17;;;;;;;14.18;9.93;;;19.00;99.90;;;;;;5031490;28;20052;-83
2022/05/18 06:29:43;;;;;;;15.15;10.15;;;19.00;99.90;;;;;;5031335;28;20037;-84
2022/05/18 06:32:09;;;;;;;14.52;10.13;;;19.10;99.90;;;;;;5032924;28;20044;-84
2022/05/18 06:34:35;;;;;;;14.38;9.98;;;19.20;99.90;;;;;;5031458;28;20035;-84
2022/05/18 06:37:03;;;;;;;15.20;9.63;;;19.30;99.90;;;;;;5031896;28;20056;-84
2022/05/18 06:39:29;;;;;;;13.65;10.02;;;19.40;99.90;;;;;;5030880;28;20045;-83
2022/05/18 06:41:56;;;;;;;12.38;9.18;;;19.50;99.90;;;;;;5032580;28;20124;-84
2022/05/18 06:44:23;;;;;;;14.05;9.43;;;19.60;99.90;;;;;;5031525;28;20044;-83
2022/05/18 06:46:50;;;;;;;16.08;9.60;;;19.70;99.90;;;;;;5030500;28;20506;-83
2022/05/18 06:49:16;;;;;;;14.15;9.57;;;19.80;99.90;;;;;;5013305;28;20044;-84
2022/05/18 06:51:44;;;;;;;12.65;9.13;;;19.90;99.90;;;;;;5032416;28;20111;-84
2022/05/18 06:54:11;;;;;;;12.43;9.52;;;20.00;99.90;;;;;;5032032;28;20032;-84
2022/05/18 06:56:39;;;;;;;14.18;9.63;;;20.10;99.90;;;;;;5031294;28;20048;-84
2022/05/18 06:59:05;;;;;;;12.90;10.00;;;20.20;99.90;;;;;;5031319;28;20087;-84
2022/05/18 07:01:31;;;;;;;14.05;9.57;;;20.30;99.90;;;;;;5032334;28;20041;-84
2022/05/18 07:03:58;;;;;;;12.65;9.05;;;20.30;99.90;;;;;;5031592;28;20448;-84
2022/05/18 07:06:25;;;;;;;11.88;9.30;;;20.50;99.90;;;;;;5031369;28;20119;-84
2022/05/18 07:08:52;;;;;;;13.25;9.15;;;20.50;99.90;;;;;;5014928;28;20044;-84
2022/05/18 07:11:21;;;;;;;14.40;8.20;;;20.60;99.90;;;;;;5015892;28;20127;-84
2022/05/18 07:13:51;;;;;;;14.32;8.90;;;20.70;99.90;;;;;;5015253;28;20517;-84
2022/05/18 07:16:26;;;;;;;12.35;9.00;;;20.80;99.90;;;;;;5013807;28;20043;-84
2022/05/18 07:18:53;;;;;;;12.82;9.25;;;20.90;99.90;;;;;;5014759;28;20481;-84
2022/05/18 07:21:19;;;;;;;11.65;8.60;;;20.90;99.90;;;;;;5014628;28;20132;-84
2022/05/18 07:23:46;;;;;;;14.23;8.85;;;21.00;99.90;;;;;;5034969;28;20052;-84
2022/05/18 07:26:13;;;;;;;12.88;9.60;;;21.10;99.90;;;;;;5034873;28;20041;-84
2022/05/18 07:28:39;;;;;;;13.45;9.40;;;21.20;99.90;;;;;;5031618;28;20039;-84
2022/05/18 07:31:06;;;;;;;16.20;9.50;;;21.30;99.90;;;;;;5034860;28;20494;-83
2022/05/18 07:33:32;;;;;;;13.27;8.93;;;21.30;99.90;;;;;;5034818;28;20512;-84
2022/05/18 07:35:57;;;;;;;15.38;8.80;;;21.40;99.90;;;;;;5017419;28;20048;-84
2022/05/18 07:38:26;;;;;;;11.50;8.85;;;21.50;99.90;;;;;;5033911;28;20048;-84
2022/05/18 07:40:52;;;;;;;12.98;9.18;;;21.60;99.90;;;;;;5018209;28;20033;-84
2022/05/18 07:43:18;;;;;;;13.85;9.98;;;21.60;99.90;;;;;;5034630;28;20483;-84
2022/05/18 07:45:49;;;;;;;13.90;9.07;;;21.70;99.90;;;;;;5018151;28;20522;-84
2022/05/18 07:48:16;;;;;;;13.85;9.77;;;21.80;99.90;;;;;;5033277;28;20037;-84
2022/05/18 07:50:42;;;;;;;13.75;9.23;;;22.00;99.90;;;;;;5034989;28;20513;-84
2022/05/18 07:53:08;;;;;;;13.15;8.95;;;22.00;99.90;;;;;;5018058;28;20557;-84
2022/05/18 07:55:33;;;;;;;13.63;9.35;;;22.20;99.90;;;;;;5017994;28;20171;-84
2022/05/18 07:58:07;;;;;;;14.45;9.27;;;22.30;99.90;;;;;;5017247;28;20422;-84
2022/05/18 08:00:34;;;;;;;13.82;9.20;;;22.30;99.90;;;;;;5017933;28;20044;-84
2022/05/18 08:02:59;;;;;;;14.13;9.05;;;22.40;99.90;;;;;;5034657;28;20124;-84
2022/05/18 08:05:25;;;;;;;13.50;8.88;;;22.50;99.90;;;;;;5017765;28;20205;-84
2022/05/18 08:07:51;;;;;;;14.02;9.15;;;22.60;99.90;;;;;;5017589;28;20041;-84
2022/05/18 08:15:49;;;;;;;14.73;9.55;;;22.80;99.90;;;;;;5034623;28;20049;-84
2022/05/18 08:18:16;;;;;;;11.80;7.53;;;22.90;99.90;;;;;;5033177;28;20036;-84
2022/05/18 08:20:45;;;;;;;12.23;7.97;;;23.10;99.90;;;;;;5034347;28;20445;-83
2022/05/18 08:23:11;;;;;;;12.23;8.20;;;23.20;99.90;;;;;;5034662;28;20474;-84
2022/05/18 08:25:37;;;;;;;12.52;7.65;;;23.20;99.90;;;;;;5033937;28;20048;-84
2022/05/18 08:28:04;;;;;;;11.63;7.00;;;23.30;99.90;;;;;;5017087;28;20047;-84
2022/05/18 08:30:31;;;;;;;11.05;7.53;;;23.40;99.90;;;;;;5034327;28;20033;-84
2022/05/18 08:33:01;;;;;;;10.35;6.82;;;23.50;99.90;;;;;;5034757;28;20048;-84
2022/05/18 08:35:29;;;;;;;10.68;6.85;;;23.60;99.90;;;;;;5033638;28;20044;-84
2022/05/18 08:37:56;;;;;;;13.32;6.72;;;23.70;98.90;;;;;;5032516;28;20064;-84
2022/05/18 08:40:58;;;;;;;13.25;6.65;;;23.80;99.60;;;;;;5033661;28;20502;-84
2022/05/18 08:43:33;;;;;;;11.30;6.10;;;23.90;98.90;;;;;;5033587;28;20852;-84
2022/05/18 08:46:04;;;;;;;9.48;6.20;;;24.00;97.30;;;;;;5049096;28;20041;-84
2022/05/18 08:48:51;;;;;;;10.90;6.95;;;24.00;97.50;;;;;;5036951;28;20041;-84
2022/05/18 08:51:48;;;;;;;12.55;6.90;;;24.10;97.90;;;;;;5020686;28;20059;-84
2022/05/18 08:54:20;;;;;;;9.75;6.25;;;24.20;96.90;;;;;;5017556;28;20075;-84
2022/05/18 08:56:46;;;;;;;12.35;7.05;;;24.20;96.70;;;;;;5033113;28;20049;-84
2022/05/18 08:59:22;;;;;;;10.30;6.18;;;24.30;95.90;;;;;;5016638;28;20120;-84
2022/05/18 09:01:51;;;;;;;10.40;6.68;;;24.30;96.70;;;;;;5032735;28;20095;-84
2022/05/18 09:04:22;;;;;;;12.23;7.25;;;24.40;97.80;;;;;;5033068;28;20040;-84
2022/05/18 09:06:57;;;;;;;11.40;6.40;;;24.50;98.10;;;;;;5033165;28;20033;-84
2022/05/18 09:12:18;;;;;;;10.02;7.00;;;24.60;95.80;;;;;;5058345;28;20040;-84
2022/05/18 09:14:45;;;;;;;10.55;6.95;;;24.60;96.30;;;;;;5033082;28;20494;-84
2022/05/18 09:17:34;;;;;;;11.60;7.68;;;24.70;96.10;;;;;;5033025;28;20720;-84
2022/05/18 09:20:22;;;;;;;11.23;6.93;;;24.70;99.20;;;;;;5016944;28;20045;-84
2022/05/18 09:23:24;;;;;;;10.52;7.00;;;24.80;98.30;;;;;;5027031;28;20413;-84
2022/05/18 09:25:59;;;;;;;10.73;6.33;;;25.00;96.30;;;;;;5033310;28;20045;-84
2022/05/18 09:28:39;;;;;;;10.93;6.32;;;25.00;95.40;;;;;;5024723;28;20409;-84
2022/05/18 09:31:27;;;;;;;10.73;6.70;;;25.10;95.70;;;;;;5036065;28;20570;-84
2022/05/18 09:34:12;;;;;;;12.70;6.97;;;25.20;96.00;;;;;;5026037;28;20049;-84
2022/05/18 09:37:11;;;;;;;11.02;6.57;;;25.20;94.10;;;;;;5032312;28;20052;-84
2022/05/18 09:39:41;;;;;;;10.52;6.03;;;25.30;93.30;;;;;;5032228;28;20103;-83
2022/05/18 09:42:18;;;;;;;10.27;6.07;;;25.30;94.00;;;;;;5032397;28;20499;-84
2022/05/18 09:44:53;;;;;;;11.20;6.57;;;25.40;93.60;;;;;;5032358;28;20041;-84
2022/05/18 09:47:22;;;;;;;9.88;6.45;;;25.50;92.80;;;;;;5031396;28;20041;-84
2022/05/18 09:49:54;;;;;;;13.57;6.82;;;25.50;93.30;;;;;;5031985;28;20505;-84
2022/05/18 09:52:24;;;;;;;10.52;6.57;;;25.50;91.60;;;;;;5031095;28;20514;-84
2022/05/18 09:54:53;;;;;;;9.88;5.50;;;25.60;91.50;;;;;;5031367;28;20049;-85
2022/05/18 09:57:33;;;;;;;9.45;5.85;;;25.70;91.40;;;;;;5031987;28;20056;-84
2022/05/18 10:00:11;;;;;;;10.40;5.50;;;25.80;91.80;;;;;;5015387;28;20037;-84
2022/05/18 10:08:30;;;;;;;11.57;6.18;;;26.10;90.60;;;;;;5030917;28;20041;-84
2022/05/18 10:11:14;;;;;;;12.20;6.90;;;26.10;92.00;;;;;;5016476;28;20451;-84
2022/05/18 10:14:06;;;;;;;11.27;6.88;;;26.20;91.60;;;;;;5032833;28;20090;-84
2022/05/18 10:16:43;;;;;;;10.77;6.00;;;26.30;90.70;;;;;;5014940;28;20044;-84
2022/05/18 10:19:31;;;;;;;11.88;6.05;;;26.40;90.90;;;;;;5015345;28;20055;-84
2022/05/18 10:22:05;;;;;;;9.80;5.93;;;26.50;89.30;;;;;;5031853;28;20120;-84
2022/05/18 10:24:57;;;;;;;12.05;6.18;;;26.60;89.00;;;;;;5032340;28;20045;-84
2022/05/18 10:27:34;;;;;;;10.13;5.93;;;26.70;84.50;;;;;;5031934;28;20037;-85
2022/05/18 10:30:18;;;;;;;9.20;5.70;;;26.80;88.10;;;;;;5031061;28;20060;-84
2022/05/18 10:33:03;;;;;;;10.77;6.03;;;26.80;85.80;;;;;;5031715;28;20123;-85
2022/05/18 10:35:51;;;;;;;11.32;7.05;;;26.80;80.30;;;;;;5009203;28;20037;-85
2022/05/18 10:38:23;;;;;;;12.27;7.07;;;26.70;82.50;;;;;;5031550;28;20041;-84
2022/05/18 10:40:51;;;;;;;11.67;7.40;;;26.70;87.30;;;;;;5030782;28;20040;-85
2022/05/18 10:43:33;;;;;;;12.20;7.55;;;26.60;90.20;;;;;;5030534;28;20037;-85
2022/05/18 10:46:20;;;;;;;13.03;7.90;;;26.60;90.10;;;;;;5015257;28;20051;-85
2022/05/18 10:49:12;;;;;;;13.10;7.85;;;26.60;88.10;;;;;;5031085;28;20279;-85
2022/05/18 10:51:38;;;;;;;11.43;7.65;;;26.80;89.50;;;;;;5010661;28;20087;-84
2022/05/18 10:54:13;;;;;;;12.38;8.00;;;26.90;86.00;;;;;;5015316;28;20068;-85
2022/05/18 10:56:39;;;;;;;12.23;7.53;;;26.90;82.70;;;;;;5031702;28;20178;-84
2022/05/18 10:59:28;;;;;;;12.85;7.90;;;26.90;81.60;;;;;;5046463;28;20107;-85
2022/05/18 11:02:29;;;;;;;11.95;7.65;;;26.90;85.00;;;;;;5036232;28;20041;-85
2022/05/18 11:05:15;;;;;;;11.63;6.75;;;27.00;86.80;;;;;;5019162;28;20083;-85
2022/05/18 11:07:42;;;;;;;10.43;6.57;;;27.10;86.50;;;;;;5045457;28;20049;-85
2022/05/18 11:10:08;;;;;;;12.55;7.82;;;27.20;83.70;;;;;;5035608;28;20048;-85
2022/05/18 11:12:57;;;;;;;10.57;6.68;;;27.40;89.80;;;;;;5035800;28;20397;-85
2022/05/18 11:15:34;;;;;;;11.45;7.68;;;27.40;78.40;;;;;;5035635;28;20069;-86
2022/05/18 11:18:13;;;;;;;12.32;7.75;;;27.30;77.50;;;;;;5017898;28;20079;-85
2022/05/18 11:20:54;;;;;;;12.25;7.40;;;27.50;78.90;;;;;;5034863;28;20498;-86
2022/05/18 11:23:34;;;;;;;13.52;7.50;;;27.60;77.70;;;;;;5031754;28;20048;-86
2022/05/18 11:26:18;;;;;;;12.75;8.00;;;27.60;75.40;;;;;;4998382;28;20721;-86
2022/05/18 11:29:04;;;;;;;11.95;7.65;;;27.60;76.60;;;;;;4997380;28;20045;-86
2022/05/18 11:31:58;;;;;;;11.15;7.03;;;27.60;72.80;;;;;;5028785;28;20124;-86
2022/05/18 11:34:29;;;;;;;9.60;6.53;;;27.70;75.70;;;;;;5017820;28;20041;-86
2022/05/18 11:37:16;;;;;;;10.77;6.10;;;27.80;74.30;;;;;;5034120;28;20426;-86
2022/05/18 11:39:47;;;;;;;11.88;6.43;;;27.80;73.10;;;;;;5017516;28;20044;-85
2022/05/18 11:42:25;;;;;;;11.35;6.90;;;27.90;80.10;;;;;;5035671;28;20447;-86
2022/05/18 11:45:08;;;;;;;11.43;6.82;;;27.80;73.70;;;;;;5018553;28;20448;-86
2022/05/18 11:47:49;;;;;;;9.90;5.50;;;27.90;71.90;;;;;;5034514;28;20060;-86
2022/05/18 11:50:34;;;;;;;9.48;6.47;;;27.90;69.00;;;;;;5033973;28;20037;-86
2022/05/18 11:53:44;;;;;;;12.75;5.85;;;28.10;68.40;;;;;;5035384;28;20064;-85
2022/05/18 11:56:20;;;;;;;9.63;5.57;;;28.10;66.90;;;;;;4957579;28;20536;-85
2022/05/18 11:59:41;;;;;;;11.35;6.28;;;28.10;72.40;;;;;;4973572;28;20042;-85
2022/05/18 12:02:44;;;;;;;11.48;6.55;;;28.20;65.40;;;;;;5020448;28;20056;-85
2022/05/18 12:05:40;;;;;;;13.40;8.88;;;28.30;67.70;;;;;;5017582;28;20106;-84
2022/05/18 12:08:40;;;;;;;13.98;9.52;;;28.30;68.30;;;;;;5032641;28;20040;-85
2022/05/18 12:11:14;;;;;;;15.23;10.32;;;28.30;66.40;;;;;;5009021;28;20041;-85
2022/05/18 12:14:02;;;;;;;13.02;9.63;;;28.40;71.30;;;;;;5017379;28;20041;-85
2022/05/18 12:16:39;;;;;;;12.18;6.93;;;28.60;70.10;;;;;;5030552;28;20041;-85
2022/05/18 12:19:52;;;;;;;9.75;5.65;;;28.70;67.00;;;;;;5033452;28;20048;-85
2022/05/18 12:22:31;;;;;;;13.45;9.63;;;28.80;64.30;;;;;;5034330;28;20036;-85
2022/05/18 12:24:57;;;;;;;13.23;9.85;;;28.80;64.50;;;;;;5034895;28;20091;-85
2022/05/18 12:27:25;;;;;;;13.75;9.02;;;28.80;66.00;;;;;;5033557;28;20048;-85
2022/05/18 12:29:53;;;;;;;15.82;9.32;;;28.90;68.10;;;;;;5017328;28;20037;-85
2022/05/18 12:32:20;;;;;;;13.52;8.88;;;29.00;64.20;;;;;;5034573;28;20048;-85
2022/05/18 12:35:12;;;;;;;12.48;9.50;;;29.10;65.20;;;;;;5033748;28;20036;-85
2022/05/18 12:38:13;;;;;;;16.58;9.98;;;29.10;65.90;;;;;;5033978;28;20037;-85
2022/05/18 12:41:02;;;;;;;12.60;9.00;;;29.10;64.10;;;;;;5025063;28;20135;-85
2022/05/18 12:43:44;;;;;;;12.15;7.75;;;29.30;61.60;;;;;;5016664;28;20724;-85
2022/05/18 12:46:16;;;;;;;12.73;8.52;;;29.40;62.80;;;;;;5015607;28;20110;-85
2022/05/18 12:49:02;;;;;;;12.88;9.38;;;29.50;62.80;;;;;;5032497;28;20056;-85
2022/05/18 12:51:27;;;;;;;11.85;8.63;;;29.40;60.90;;;;;;5033293;28;20477;-85
2022/05/18 12:53:59;;;;;;;12.15;9.75;;;29.40;61.80;;;;;;5034387;28;20520;-85
2022/05/18 12:57:03;;;;;;;13.73;10.13;;;29.40;60.90;;;;;;5032729;28;20064;-84
2022/05/18 12:59:55;;;;;;;14.90;9.48;;;29.40;61.10;;;;;;5006774;28;20080;-84
2022/05/18 13:02:52;;;;;;;15.93;9.18;;;29.50;62.50;;;;;;4978032;28;20478;-84
2022/05/18 13:05:27;;;;;;;12.30;8.32;;;29.50;63.40;;;;;;4980331;28;20082;-79
2022/05/18 13:08:15;;;;;;;12.60;8.43;;;29.40;60.40;;;;;;4963050;28;20126;-84
2022/05/18 13:11:13;;;;;;;15.27;10.32;;;29.40;59.80;;;;;;4939788;28;20078;-84
2022/05/18 13:14:00;;;;;;;14.65;10.68;;;29.20;59.50;;;;;;4964717;28;20069;-84
2022/05/18 13:16:38;;;;;;;12.15;8.80;;;29.20;60.20;;;;;;4995225;28;20033;-84
2022/05/18 13:19:13;;;;;;;11.88;7.22;;;29.00;61.00;;;;;;4994960;28;20094;-84